Quick Links (Output Below):   Max & Min Temps   /   Climate Reports   /   Zone Forecasts
River Forecasts   /   Forestry Forecasts   /   Aviation Forecasts   /   Radars   /   Features

Terminal Aerodrome Forecast (Highfill)

Pick a Site:
Arkadelphia | El Dorado | Fayetteville | Fort Smith | Harrison | Highfill | Hot Springs | Jonesboro
Little Rock | Monticello | Mountain Home | Pine Bluff | Texarkana
 Forecast 

KXNA 040211Z 0402/0424 00000KT 4SM BR BKN012 OVC020
      TEMPO 0402/0404 2SM -RA BR BKN006 OVC012
     FM040400 01005KT 3SM -RA BR OVC006
     FM041400 02013G20KT 3SM PL OVC007
     FM042000 01008KT 1SM -SN BKN007 OVC015=


 Latest METARs (Observations) 
How to Decode METARs
00Z KXNA 032353Z 33003KT 8SM OVC009 10/08 A2983 RMK AO2 SLP103
         T01000083 10106 20078 53002
         
***** Today's Observations (Above) *****


23Z KXNA 032253Z VRB04KT 10SM OVC007 10/09 A2982 RMK AO2 SLP099
         T01000089
         
22Z KXNA 032153Z 24008KT 10SM OVC007 11/09 A2982 RMK AO2 SLP101
         T01060089
         
21Z KXNA 032053Z 24004KT 10SM OVC006 10/09 A2983 RMK AO2 SLP102
         T01000089 55010
         
20Z KXNA 031953Z 23011KT 10SM OVC005 10/09 A2982 RMK AO2 SLP101
         T01000089
         
19Z KXNA 031853Z 21017G24KT 6SM BR OVC003 09/08 A2986 RMK AO2 SLP113
         T00890078
         
18Z KXNA 031753Z 22012G21KT 2 1/2SM BR OVC003 08/07 A2990 RMK AO2
         RAB10E19B40E49 SLP127 P0000 60000 T00780072 10078 20050
         58005
         
17Z KXNA 031653Z 21013G23KT 3SM BR OVC004 07/06 A2991 RMK AO2
         RAB1558E20 SLP131 P0000 T00670061
         
16Z KXNA 031553Z 21015G24KT 3SM BR OVC003 07/06 A2991 RMK AO2 PK WND
         22027/1526 RAB18E45 SLP133 P0000 T00670061
         
15Z KXNA 031453Z 21016G27KT 2 1/2SM BR OVC003 06/06 A2990 RMK AO2 PK
         WND 20027/1450 SLP130 T00610056 58004
         
***** Yesterday's Observations (Above) *****


Back to Main Page
http://www.srh.noaa.gov/lzk/qfcst.php

USA.gov is the U.S. government's official web portal to all federal, state and local government web resources and services.